sensor_id;sensor_type;location;lat;lon;timestamp;P1;P2;P0
72918;PMS7003;68407;55.694;26.994;2023-12-04T00:02:04;15.2;11.2;8
72918;PMS7003;68407;55.694;26.994;2023-12-04T00:06:26;13.2;9;6.6
72918;PMS7003;68407;55.694;26.994;2023-12-04T00:11:40;13.4;9.2;7
72918;PMS7003;68407;55.694;26.994;2023-12-04T00:16:24;13.4;9.6;6.8
72918;PMS7003;68407;55.694;26.994;2023-12-04T00:21:24;11.8;7.8;6.6
72918;PMS7003;68407;55.694;26.994;2023-12-04T00:26:38;11.6;9;6.6
72918;PMS7003;68407;55.694;26.994;2023-12-04T00:31:52;12.6;8.8;7
72918;PMS7003;68407;55.694;26.994;2023-12-04T00:37:02;13.6;10;7
72918;PMS7003;68407;55.694;26.994;2023-12-04T00:41:24;11;8.8;6.8
72918;PMS7003;68407;55.694;26.994;2023-12-04T00:47:00;12;8.8;7
72918;PMS7003;68407;55.694;26.994;2023-12-04T00:51:36;13;9.8;6.8
72918;PMS7003;68407;55.694;26.994;2023-12-04T00:56:46;11.4;9;6.4
72918;PMS7003;68407;55.694;26.994;2023-12-04T01:01:42;12.2;9.8;7.4
72918;PMS7003;68407;55.694;26.994;2023-12-04T01:06:34;10.4;7.4;5.6
72918;PMS7003;68407;55.694;26.994;2023-12-04T01:12:04;14;9;7
72918;PMS7003;68407;55.694;26.994;2023-12-04T01:16:46;11.6;8.8;6.6
72918;PMS7003;68407;55.694;26.994;2023-12-04T01:22:04;11.4;8.6;6.2
72918;PMS7003;68407;55.694;26.994;2023-12-04T01:27:04;10.4;8.4;5.8
72918;PMS7003;68407;55.694;26.994;2023-12-04T01:31:28;11.8;8.4;6.6
72918;PMS7003;68407;55.694;26.994;2023-12-04T01:36:32;13.4;9.6;7
72918;PMS7003;68407;55.694;26.994;2023-12-04T01:42:06;10.6;9;7
72918;PMS7003;68407;55.694;26.994;2023-12-04T01:46:24;12.6;9.6;7.2
72918;PMS7003;68407;55.694;26.994;2023-12-04T01:51:32;12.5;8.8;7
72918;PMS7003;68407;55.694;26.994;2023-12-04T01:56:24;13.4;9;7
72918;PMS7003;68407;55.694;26.994;2023-12-04T02:01:24;12.2;10.2;7.2
72918;PMS7003;68407;55.694;26.994;2023-12-04T02:06:32;12.2;9.6;6.6
72918;PMS7003;68407;55.694;26.994;2023-12-04T02:11:56;12.4;9.6;6.6
72918;PMS7003;68407;55.694;26.994;2023-12-04T02:17:06;13.6;9.6;6.6
72918;PMS7003;68407;55.694;26.994;2023-12-04T02:21:40;10.8;7.6;5.4
72918;PMS7003;68407;55.694;26.994;2023-12-04T02:26:28;10.2;8.4;5.6
72918;PMS7003;68407;55.694;26.994;2023-12-04T02:31:26;11;9.2;6
72918;PMS7003;68407;55.694;26.994;2023-12-04T02:36:48;9.8;8.4;6.2
72918;PMS7003;68407;55.694;26.994;2023-12-04T02:41:28;9;7.2;5.2
72918;PMS7003;68407;55.694;26.994;2023-12-04T02:46:24;9.4;7.2;5
72918;PMS7003;68407;55.694;26.994;2023-12-04T02:51:44;8.6;7;5
72918;PMS7003;68407;55.694;26.994;2023-12-04T02:56:52;9.8;8;5.3
72918;PMS7003;68407;55.694;26.994;2023-12-04T03:02:02;8.6;7.2;5.8
72918;PMS7003;68407;55.694;26.994;2023-12-04T03:07:00;12.6;9.2;6.2
72918;PMS7003;68407;55.694;26.994;2023-12-04T03:11:24;13.2;9.4;6.4
72918;PMS7003;68407;55.694;26.994;2023-12-04T03:17:06;10.4;8.8;5.8
72918;PMS7003;68407;55.694;26.994;2023-12-04T03:21:34;11;7.8;6
72918;PMS7003;68407;55.694;26.994;2023-12-04T03:27:02;11;8;5.6
72918;PMS7003;68407;55.694;26.994;2023-12-04T03:31:24;11.8;8;5.6
72918;PMS7003;68407;55.694;26.994;2023-12-04T03:36:26;10.6;8.8;5.8
72918;PMS7003;68407;55.694;26.994;2023-12-04T03:41:32;10;7.4;5.4
72918;PMS7003;68407;55.694;26.994;2023-12-04T03:46:26;9.8;7.8;5.2
72918;PMS7003;68407;55.694;26.994;2023-12-04T03:51:24;9;7.4;4.4
72918;PMS7003;68407;55.694;26.994;2023-12-04T03:56:50;11.5;8.8;6.8
72918;PMS7003;68407;55.694;26.994;2023-12-04T04:01:54;11.4;8;6.4
72918;PMS7003;68407;55.694;26.994;2023-12-04T04:07:08;10.6;7;4.4
72918;PMS7003;68407;55.694;26.994;2023-12-04T04:12:06;12.2;8.4;6.4
72918;PMS7003;68407;55.694;26.994;2023-12-04T04:16:54;12.2;9.2;7
72918;PMS7003;68407;55.694;26.994;2023-12-04T04:22:06;11;8.2;6.6
72918;PMS7003;68407;55.694;26.994;2023-12-04T04:26:32;12.4;9;6.2
72918;PMS7003;68407;55.694;26.994;2023-12-04T04:31:46;9;7.8;6
72918;PMS7003;68407;55.694;26.994;2023-12-04T04:36:54;13.4;8.8;6.2
72918;PMS7003;68407;55.694;26.994;2023-12-04T04:42:04;13.6;9.8;7.2
72918;PMS7003;68407;55.694;26.994;2023-12-04T04:46:44;13.6;9.6;7.2
72918;PMS7003;68407;55.694;26.994;2023-12-04T04:51:30;13.2;10;7.4
72918;PMS7003;68407;55.694;26.994;2023-12-04T04:57:06;12.3;9.5;7.5
72918;PMS7003;68407;55.694;26.994;2023-12-04T05:01:44;13.8;11.8;7.8
72918;PMS7003;68407;55.694;26.994;2023-12-04T05:06:52;17.8;12.6;8
72918;PMS7003;68407;55.694;26.994;2023-12-04T05:11:24;14.4;11.8;8.6
72918;PMS7003;68407;55.694;26.994;2023-12-04T05:17:04;15.4;11.8;8.8
72918;PMS7003;68407;55.694;26.994;2023-12-04T05:21:30;15.4;14.2;9.2
72918;PMS7003;68407;55.694;26.994;2023-12-04T05:26:26;14.4;11.6;8.2
72918;PMS7003;68407;55.694;26.994;2023-12-04T05:31:24;18.6;12.2;9.4
72918;PMS7003;68407;55.694;26.994;2023-12-04T05:37:04;15.4;12;8.4
72918;PMS7003;68407;55.694;26.994;2023-12-04T05:41:36;16.6;13.6;9.4
72918;PMS7003;68407;55.694;26.994;2023-12-04T05:47:04;15;13;9.4
72918;PMS7003;68407;55.694;26.994;2023-12-04T05:52:04;17.6;12.2;9.4
72918;PMS7003;68407;55.694;26.994;2023-12-04T05:56:48;16.5;12.5;8.8
72918;PMS7003;68407;55.694;26.994;2023-12-04T06:02:06;16.6;13.2;8.6
72918;PMS7003;68407;55.694;26.994;2023-12-04T06:06:48;19.2;12.2;8.6
72918;PMS7003;68407;55.694;26.994;2023-12-04T06:11:34;18.6;14.6;10.4
72918;PMS7003;68407;55.694;26.994;2023-12-04T06:16:54;17.4;14.2;10.4
72918;PMS7003;68407;55.694;26.994;2023-12-04T06:22:06;19.2;15;10
72918;PMS7003;68407;55.694;26.994;2023-12-04T06:27:02;16.8;13.2;9.6
72918;PMS7003;68407;55.694;26.994;2023-12-04T06:31:42;19.6;15;9.8
72918;PMS7003;68407;55.694;26.994;2023-12-04T06:37:04;20.6;15.4;9.8
72918;PMS7003;68407;55.694;26.994;2023-12-04T06:41:28;21.6;14.6;10
72918;PMS7003;68407;55.694;26.994;2023-12-04T06:46:42;22.4;16.4;10.8
72918;PMS7003;68407;55.694;26.994;2023-12-04T06:51:44;16.8;13.2;9.4
72918;PMS7003;68407;55.694;26.994;2023-12-04T06:56:30;18.8;13.8;9.3
72918;PMS7003;68407;55.694;26.994;2023-12-04T07:01:54;18.2;15.6;10.8
72918;PMS7003;68407;55.694;26.994;2023-12-04T07:06:52;21.2;16.4;11
72918;PMS7003;68407;55.694;26.994;2023-12-04T07:11:24;18.4;15.6;10.6
72918;PMS7003;68407;55.694;26.994;2023-12-04T07:16:24;19.2;14.4;10
72918;PMS7003;68407;55.694;26.994;2023-12-04T07:22:04;18;16;10.8
72918;PMS7003;68407;55.694;26.994;2023-12-04T07:27:08;19.6;16;10.4
72918;PMS7003;68407;55.694;26.994;2023-12-04T07:32:06;20.4;16;10.6
72918;PMS7003;68407;55.694;26.994;2023-12-04T07:36:24;19.4;15.2;11
72918;PMS7003;68407;55.694;26.994;2023-12-04T07:42:02;20;15.6;10.4
72918;PMS7003;68407;55.694;26.994;2023-12-04T07:46:24;20.2;16;10.6
72918;PMS7003;68407;55.694;26.994;2023-12-04T07:51:44;18.2;15.6;11
72918;PMS7003;68407;55.694;26.994;2023-12-04T07:56:52;20;16.4;10.8
72918;PMS7003;68407;55.694;26.994;2023-12-04T08:01:32;24;17.3;11
72918;PMS7003;68407;55.694;26.994;2023-12-04T08:06:32;21.6;17.6;11.8
72918;PMS7003;68407;55.694;26.994;2023-12-04T08:11:56;22.8;18.2;11.6
72918;PMS7003;68407;55.694;26.994;2023-12-04T08:17:04;21.8;16.4;10.6
72918;PMS7003;68407;55.694;26.994;2023-12-04T08:22:00;23.8;18.4;11.8
72918;PMS7003;68407;55.694;26.994;2023-12-04T08:26:58;21;16.4;11.2
72918;PMS7003;68407;55.694;26.994;2023-12-04T08:31:26;20.2;15.6;10.6
72918;PMS7003;68407;55.694;26.994;2023-12-04T08:36:26;22.2;15.8;11
72918;PMS7003;68407;55.694;26.994;2023-12-04T08:41:24;20.4;16;11
72918;PMS7003;68407;55.694;26.994;2023-12-04T08:46:30;20.6;16.6;11
72918;PMS7003;68407;55.694;26.994;2023-12-04T08:51:28;19.4;14.2;9.8
72918;PMS7003;68407;55.694;26.994;2023-12-04T08:56:26;19.8;15.2;10.8
72918;PMS7003;68407;55.694;26.994;2023-12-04T09:01:34;19.8;14.3;9
72918;PMS7003;68407;55.694;26.994;2023-12-04T09:07:06;20;16.2;10.6
72918;PMS7003;68407;55.694;26.994;2023-12-04T09:12:04;21.2;15.2;10.2
72918;PMS7003;68407;55.694;26.994;2023-12-04T09:16:44;21.4;16;11
72918;PMS7003;68407;55.694;26.994;2023-12-04T09:22:02;19.6;16.2;10.6
72918;PMS7003;68407;55.694;26.994;2023-12-04T09:26:28;21.8;17.2;11.2
72918;PMS7003;68407;55.694;26.994;2023-12-04T09:31:28;22.8;17.2;11
72918;PMS7003;68407;55.694;26.994;2023-12-04T09:37:04;23.4;17.8;11.2
72918;PMS7003;68407;55.694;26.994;2023-12-04T09:41:32;27;20.8;13.2
72918;PMS7003;68407;55.694;26.994;2023-12-04T09:47:06;25;20;12.2
72918;PMS7003;68407;55.694;26.994;2023-12-04T09:51:27;24.6;19.6;12.2
72918;PMS7003;68407;55.694;26.994;2023-12-04T09:57:04;21.4;16;10.8
72918;PMS7003;68407;55.694;26.994;2023-12-04T10:02:04;19.8;14.3;8.8
72918;PMS7003;68407;55.694;26.994;2023-12-04T10:07:00;17.6;12.8;8.6
72918;PMS7003;68407;55.694;26.994;2023-12-04T10:11:30;22.2;15;10.6
72918;PMS7003;68407;55.694;26.994;2023-12-04T10:16:32;18.6;14.6;9.2
72918;PMS7003;68407;55.694;26.994;2023-12-04T10:21:34;19.6;14.8;10
72918;PMS7003;68407;55.694;26.994;2023-12-04T10:26:26;16.6;12.6;8.2
72918;PMS7003;68407;55.694;26.994;2023-12-04T10:31:26;18;13.2;9.8
72918;PMS7003;68407;55.694;26.994;2023-12-04T10:36:44;17.6;13.4;8.4
72918;PMS7003;68407;55.694;26.994;2023-12-04T10:42:02;15;11.6;8.2
72918;PMS7003;68407;55.694;26.994;2023-12-04T10:47:06;15;10.4;7.8
72918;PMS7003;68407;55.694;26.994;2023-12-04T10:52:04;16.6;12.8;8.2
72918;PMS7003;68407;55.694;26.994;2023-12-04T10:56:35;17;13.8;7.4
72918;PMS7003;68407;55.694;26.994;2023-12-04T11:02:02;14.5;10.3;6.8
72918;PMS7003;68407;55.694;26.994;2023-12-04T11:06:37;18.2;12.4;7.8
72918;PMS7003;68407;55.694;26.994;2023-12-04T11:11:36;14.4;10.2;7.4
72918;PMS7003;68407;55.694;26.994;2023-12-04T11:16:55;16.2;11.2;7.2
72918;PMS7003;68407;55.694;26.994;2023-12-04T11:21:34;15.2;12.8;8
72918;PMS7003;68407;55.694;26.994;2023-12-04T11:26:24;17.4;13;8.8
72918;PMS7003;68407;55.694;26.994;2023-12-04T11:31:52;16.2;12.4;7.6
72918;PMS7003;68407;55.694;26.994;2023-12-04T11:37:06;16.4;13;8.8
72918;PMS7003;68407;55.694;26.994;2023-12-04T11:42:06;18.4;13.2;8
72918;PMS7003;68407;55.694;26.994;2023-12-04T11:46:55;19.2;13.6;8.8
72918;PMS7003;68407;55.694;26.994;2023-12-04T11:51:45;16.8;12.2;7.6
72918;PMS7003;68407;55.694;26.994;2023-12-04T11:56:28;15.2;11.8;7.8
72918;PMS7003;68407;55.694;26.994;2023-12-04T12:01:26;16.3;11.3;7.5
72918;PMS7003;68407;55.694;26.994;2023-12-04T12:06:28;13;8.8;6.2
72918;PMS7003;68407;55.694;26.994;2023-12-04T12:11:26;11.8;9.2;6.2
72918;PMS7003;68407;55.694;26.994;2023-12-04T12:16:48;8.8;6.6;4.8
72918;PMS7003;68407;55.694;26.994;2023-12-04T12:21:36;7.6;6;4.2
72918;PMS7003;68407;55.694;26.994;2023-12-04T12:26:54;10.6;6.8;4.4
72918;PMS7003;68407;55.694;26.994;2023-12-04T12:32:06;7.8;5.6;4.6
72918;PMS7003;68407;55.694;26.994;2023-12-04T12:36:52;6.6;5;4
72918;PMS7003;68407;55.694;26.994;2023-12-04T12:42:02;7.8;6;4
72918;PMS7003;68407;55.694;26.994;2023-12-04T12:46:28;9.8;7.2;4.8
72918;PMS7003;68407;55.694;26.994;2023-12-04T12:51:48;8.2;6.4;4.8
72918;PMS7003;68407;55.694;26.994;2023-12-04T12:56:38;7.8;5.4;4.2
72918;PMS7003;68407;55.694;26.994;2023-12-04T13:01:24;8.6;6.2;4.6
72918;PMS7003;68407;55.694;26.994;2023-12-04T13:07:06;9.3;6;5
72918;PMS7003;68407;55.694;26.994;2023-12-04T13:11:36;9.2;6.4;4.2
72918;PMS7003;68407;55.694;26.994;2023-12-04T13:17:08;8.2;5.4;4
72918;PMS7003;68407;55.694;26.994;2023-12-04T13:22:08;11;7;4.8
72918;PMS7003;68407;55.694;26.994;2023-12-04T13:26:44;11.8;8.2;5.4
72918;PMS7003;68407;55.694;26.994;2023-12-04T13:31:42;10.2;6.6;5.2
72918;PMS7003;68407;55.694;26.994;2023-12-04T13:37:08;11;8.2;5.8
72918;PMS7003;68407;55.694;26.994;2023-12-04T13:41:38;12.8;8.4;5
72918;PMS7003;68407;55.694;26.994;2023-12-04T13:46:26;9.4;7;5
72918;PMS7003;68407;55.694;26.994;2023-12-04T13:51:44;12;8.8;5
72918;PMS7003;68407;55.694;26.994;2023-12-04T13:56:48;9.4;6.6;4.4
72918;PMS7003;68407;55.694;26.994;2023-12-04T14:01:26;12;8.4;5.6
72918;PMS7003;68407;55.694;26.994;2023-12-04T14:06:56;10.5;7.8;5
72918;PMS7003;68407;55.694;26.994;2023-12-04T14:12:06;10;7.6;5.2
72918;PMS7003;68407;55.694;26.994;2023-12-04T14:17:00;10.2;6;4.6
72918;PMS7003;68407;55.694;26.994;2023-12-04T14:21:46;7.2;6.4;4.6
72918;PMS7003;68407;55.694;26.994;2023-12-04T14:26:54;7.2;5.2;4.4
72918;PMS7003;68407;55.694;26.994;2023-12-04T14:31:34;6.6;4.2;3.2
72918;PMS7003;68407;55.694;26.994;2023-12-04T14:36:26;7.2;5;3.4
72918;PMS7003;68407;55.694;26.994;2023-12-04T14:41:44;6.4;4.4;3.4
72918;PMS7003;68407;55.694;26.994;2023-12-04T14:46:28;7.4;4.6;3
72918;PMS7003;68407;55.694;26.994;2023-12-04T14:51:28;6.8;4.4;3.2
72918;PMS7003;68407;55.694;26.994;2023-12-04T14:56:48;6.6;4.4;3.8
72918;PMS7003;68407;55.694;26.994;2023-12-04T15:02:08;4.6;3.4;2.8
72918;PMS7003;68407;55.694;26.994;2023-12-04T15:07:04;4;3.3;2.3
72918;PMS7003;68407;55.694;26.994;2023-12-04T15:11:42;4.2;3;2.4
72918;PMS7003;68407;55.694;26.994;2023-12-04T15:17:08;2.8;2.6;2
72918;PMS7003;68407;55.694;26.994;2023-12-04T15:21:24;5;3;2
72918;PMS7003;68407;55.694;26.994;2023-12-04T15:27:04;3.8;2.6;2
72918;PMS7003;68407;55.694;26.994;2023-12-04T15:31:50;3.2;2.6;2.2
72918;PMS7003;68407;55.694;26.994;2023-12-04T15:36:44;4.8;3.2;2.2
72918;PMS7003;68407;55.694;26.994;2023-12-04T15:41:32;5.6;4;2.8
72918;PMS7003;68407;55.694;26.994;2023-12-04T15:46:54;4.4;3;2
72918;PMS7003;68407;55.694;26.994;2023-12-04T15:52:08;5.8;4.2;2.8
72918;PMS7003;68407;55.694;26.994;2023-12-04T15:57:06;5.2;4.4;3.4
72918;PMS7003;68407;55.694;26.994;2023-12-04T16:01:28;5.4;3.8;2.8
72918;PMS7003;68407;55.694;26.994;2023-12-04T16:06:44;7;3.8;3.3
72918;PMS7003;68407;55.694;26.994;2023-12-04T16:11:50;5.2;4.2;3
72918;PMS7003;68407;55.694;26.994;2023-12-04T16:16:54;5.2;3.8;2.8
72918;PMS7003;68407;55.694;26.994;2023-12-04T16:21:44;4.6;3.2;2.8
72918;PMS7003;68407;55.694;26.994;2023-12-04T16:26:46;4.4;3.6;3.2
72918;PMS7003;68407;55.694;26.994;2023-12-04T16:31:54;4.6;3.2;2.2
72918;PMS7003;68407;55.694;26.994;2023-12-04T16:37:10;4.2;3.2;2.8
72918;PMS7003;68407;55.694;26.994;2023-12-04T16:42:06;5.6;4.2;3
72918;PMS7003;68407;55.694;26.994;2023-12-04T16:46:46;6.2;5;3
72918;PMS7003;68407;55.694;26.994;2023-12-04T16:52:06;7.6;4.4;3.6
72918;PMS7003;68407;55.694;26.994;2023-12-04T16:56:46;5.6;4;2.6
72918;PMS7003;68407;55.694;26.994;2023-12-04T17:02:02;6.8;4.4;3.4
72918;PMS7003;68407;55.694;26.994;2023-12-04T17:07:06;6.8;3.8;3
72918;PMS7003;68407;55.694;26.994;2023-12-04T17:11:26;4.8;3.2;2.4
72918;PMS7003;68407;55.694;26.994;2023-12-04T17:16:24;4.2;3.4;2.2
72918;PMS7003;68407;55.694;26.994;2023-12-04T17:21:26;4.6;3.4;2.6
72918;PMS7003;68407;55.694;26.994;2023-12-04T17:26:50;4.2;2.4;2
72918;PMS7003;68407;55.694;26.994;2023-12-04T17:31:24;4.2;3.8;3
72918;PMS7003;68407;55.694;26.994;2023-12-04T17:36:24;3.8;2.6;2.2
72918;PMS7003;68407;55.694;26.994;2023-12-04T17:42:10;3.4;3.2;2.2
72918;PMS7003;68407;55.694;26.994;2023-12-04T17:47:06;2.6;2;1.8
72918;PMS7003;68407;55.694;26.994;2023-12-04T17:51:24;3.8;3;2.6
72918;PMS7003;68407;55.694;26.994;2023-12-04T17:56:52;2.8;2.4;2
72918;PMS7003;68407;55.694;26.994;2023-12-04T18:01:24;3.6;2.6;2.2
72918;PMS7003;68407;55.694;26.994;2023-12-04T18:06:48;4;3;2.4
72918;PMS7003;68407;55.694;26.994;2023-12-04T18:11:56;5.5;3.3;3
72918;PMS7003;68407;55.694;26.994;2023-12-04T18:17:08;3.6;2.8;2.2
72918;PMS7003;68407;55.694;26.994;2023-12-04T18:22:04;5.8;3.2;2.6
72918;PMS7003;68407;55.694;26.994;2023-12-04T18:26:26;3.6;2.6;2.2
72918;PMS7003;68407;55.694;26.994;2023-12-04T18:32:10;4;3.2;2.8
72918;PMS7003;68407;55.694;26.994;2023-12-04T18:37:07;4.4;3;2.4
72918;PMS7003;68407;55.694;26.994;2023-12-04T18:42:08;5;3;2.4
72918;PMS7003;68407;55.694;26.994;2023-12-04T18:46:34;5.4;3.2;2.6
72918;PMS7003;68407;55.694;26.994;2023-12-04T18:51:26;5.2;3.4;2.4
72918;PMS7003;68407;55.694;26.994;2023-12-04T18:57:08;5;3.2;2.4
72918;PMS7003;68407;55.694;26.994;2023-12-04T19:01:26;4.2;3.2;2.6
72918;PMS7003;68407;55.694;26.994;2023-12-04T19:06:44;4.2;3.2;2.6
72918;PMS7003;68407;55.694;26.994;2023-12-04T19:11:26;6.5;3.8;2.8
72918;PMS7003;68407;55.694;26.994;2023-12-04T19:16:26;4;2.8;2.4
72918;PMS7003;68407;55.694;26.994;2023-12-04T19:22:08;5.4;2.8;2
72918;PMS7003;68407;55.694;26.994;2023-12-04T19:27:06;4.4;3.4;2.2
72918;PMS7003;68407;55.694;26.994;2023-12-04T19:31:36;4.8;3.6;3
72918;PMS7003;68407;55.694;26.994;2023-12-04T19:37:06;4;3.2;2.4
72918;PMS7003;68407;55.694;26.994;2023-12-04T19:41:29;4.8;3.2;2.8
72918;PMS7003;68407;55.694;26.994;2023-12-04T19:46:48;6.8;5.2;3.4
72918;PMS7003;68407;55.694;26.994;2023-12-04T19:51:28;4.6;3.6;2.4
72918;PMS7003;68407;55.694;26.994;2023-12-04T19:57:06;4;3.4;2.4
72918;PMS7003;68407;55.694;26.994;2023-12-04T20:02:02;4.4;3;2.2
72918;PMS7003;68407;55.694;26.994;2023-12-04T20:06:36;4.2;3;3
72918;PMS7003;68407;55.694;26.994;2023-12-04T20:12:08;4;2.5;2
72918;PMS7003;68407;55.694;26.994;2023-12-04T20:16:46;4.4;3.4;2.4
72918;PMS7003;68407;55.694;26.994;2023-12-04T20:22:04;4.4;2.4;2.2
72918;PMS7003;68407;55.694;26.994;2023-12-04T20:26:38;4;2.8;2.2
72918;PMS7003;68407;55.694;26.994;2023-12-04T20:31:24;4.2;2.6;1.8
72918;PMS7003;68407;55.694;26.994;2023-12-04T20:37:08;6;4;3
72918;PMS7003;68407;55.694;26.994;2023-12-04T20:41:34;4;3;2.4
72918;PMS7003;68407;55.694;26.994;2023-12-04T20:46:26;6.2;3.8;2.8
72918;PMS7003;68407;55.694;26.994;2023-12-04T20:51:30;4.6;3.2;2.6
72918;PMS7003;68407;55.694;26.994;2023-12-04T20:57:02;6.2;3.4;2.4
72918;PMS7003;68407;55.694;26.994;2023-12-04T21:02:08;4;3.2;2.8
72918;PMS7003;68407;55.694;26.994;2023-12-04T21:07:08;5.8;3.6;2.4
72918;PMS7003;68407;55.694;26.994;2023-12-04T21:11:52;4.3;3.3;2.3
72918;PMS7003;68407;55.694;26.994;2023-12-04T21:17:04;4.6;3.6;2.2
72918;PMS7003;68407;55.694;26.994;2023-12-04T21:21:36;5.4;4.2;3.4
72918;PMS7003;68407;55.694;26.994;2023-12-04T21:26:44;7.8;4.2;3.2
72918;PMS7003;68407;55.694;26.994;2023-12-04T21:31:36;5.6;4.2;3
72918;PMS7003;68407;55.694;26.994;2023-12-04T21:36:36;4.6;3;2.6
72918;PMS7003;68407;55.694;26.994;2023-12-04T21:41:26;6.4;3.6;2.6
72918;PMS7003;68407;55.694;26.994;2023-12-04T21:46:36;3.8;3.4;2.6
72918;PMS7003;68407;55.694;26.994;2023-12-04T21:52:08;4.2;3.2;2.6
72918;PMS7003;68407;55.694;26.994;2023-12-04T21:57:08;4.6;4.2;3.2
72918;PMS7003;68407;55.694;26.994;2023-12-04T22:02:02;6.8;4.2;3
72918;PMS7003;68407;55.694;26.994;2023-12-04T22:06:26;6.2;3.8;3.2
72918;PMS7003;68407;55.694;26.994;2023-12-04T22:11:30;5.5;3.8;3.5
72918;PMS7003;68407;55.694;26.994;2023-12-04T22:16:28;4.6;3.2;2
72918;PMS7003;68407;55.694;26.994;2023-12-04T22:22:08;5.6;3.6;2.8
72918;PMS7003;68407;55.694;26.994;2023-12-04T22:26:56;5.4;4;2.6
72918;PMS7003;68407;55.694;26.994;2023-12-04T22:32:08;7.8;4.8;3.4
72918;PMS7003;68407;55.694;26.994;2023-12-04T22:37:02;6.8;4.6;3.2
72918;PMS7003;68407;55.694;26.994;2023-12-04T22:42:08;7.6;4.6;4
72918;PMS7003;68407;55.694;26.994;2023-12-04T22:47:08;5.8;3.8;2.6
72918;PMS7003;68407;55.694;26.994;2023-12-04T22:51:36;6.2;3.4;2.6
72918;PMS7003;68407;55.694;26.994;2023-12-04T22:57:04;5.6;4.2;3.2
72918;PMS7003;68407;55.694;26.994;2023-12-04T23:01:28;8;4.8;3.4
72918;PMS7003;68407;55.694;26.994;2023-12-04T23:07:08;6.6;5.2;4.2
72918;PMS7003;68407;55.694;26.994;2023-12-04T23:11:56;6;4.6;3.8
72918;PMS7003;68407;55.694;26.994;2023-12-04T23:16:54;5.8;4.5;3
72918;PMS7003;68407;55.694;26.994;2023-12-04T23:21:54;5.8;4.6;3.2
72918;PMS7003;68407;55.694;26.994;2023-12-04T23:26:36;6.4;4.6;3
72918;PMS7003;68407;55.694;26.994;2023-12-04T23:32:08;7;5;3.8
72918;PMS7003;68407;55.694;26.994;2023-12-04T23:37:08;5.6;4.6;3.4
72918;PMS7003;68407;55.694;26.994;2023-12-04T23:41:26;5.8;3.8;2.8
72918;PMS7003;68407;55.694;26.994;2023-12-04T23:46:26;5.4;3.4;2.8
72918;PMS7003;68407;55.694;26.994;2023-12-04T23:51:34;6.8;4.6;3
72918;PMS7003;68407;55.694;26.994;2023-12-04T23:56:34;7.2;4.2;3.4
